EZY237 EGPH-EGNM
Flight info
| Callsign | EZY237 |
|---|---|
| Flight time | 0h 37m |
| Altitude | 21000 |
| Route | GOSAM P600 FENIK L612 CALDA DCT POL |
| Aircraft | A320/M-SDE3FGHIRWY/LB1 |
Departure
| Time | 2026-05-06 14:13 |
|---|---|
| Airport | Edinburgh Airport (EGPH) |
Arrival
| Time | 2026-05-06 14:51 |
|---|---|
| Airport | Leeds Bradford Airport (EGNM) |
| Time | Latitude | Longitude | Altitude | Speed | Heading |
|---|---|---|---|---|---|
| 2026-05-06 13:50 | 55.94854 | -3.36604 | 114 ft | 0 kts | 145° |
| 2026-05-06 13:54 | 55.94855 | -3.36604 | 116 ft | 0 kts | 145° |
| 2026-05-06 14:03 | 55.94858 | -3.36608 | 116 ft | 3 kts | 146° |
| 2026-05-06 14:03 | 55.94880 | -3.36633 | 112 ft | 4 kts | 152° |
| 2026-05-06 14:04 | 55.94905 | -3.36652 | 114 ft | 4 kts | 170° |
| 2026-05-06 14:04 | 55.94927 | -3.36649 | 116 ft | 4 kts | 227° |
| 2026-05-06 14:04 | 55.94931 | -3.36642 | 114 ft | 0 kts | 239° |
| 2026-05-06 14:08 | 55.94930 | -3.36644 | 116 ft | 2 kts | 239° |
| 2026-05-06 14:08 | 55.94900 | -3.36733 | 113 ft | 13 kts | 238° |
| 2026-05-06 14:08 | 55.94925 | -3.36854 | 115 ft | 10 kts | 298° |
| 2026-05-06 14:09 | 55.94897 | -3.36982 | 115 ft | 17 kts | 239° |
| 2026-05-06 14:09 | 55.94812 | -3.37239 | 113 ft | 31 kts | 239° |
| 2026-05-06 14:09 | 55.94696 | -3.37578 | 115 ft | 33 kts | 236° |
| 2026-05-06 14:09 | 55.94575 | -3.37926 | 112 ft | 34 kts | 238° |
| 2026-05-06 14:10 | 55.94452 | -3.38288 | 114 ft | 35 kts | 240° |
| 2026-05-06 14:10 | 55.94327 | -3.38661 | 115 ft | 35 kts | 239° |
| 2026-05-06 14:10 | 55.94274 | -3.38824 | 113 ft | 10 kts | 251° |
| 2026-05-06 14:10 | 55.94309 | -3.38890 | 115 ft | 7 kts | 330° |
| 2026-05-06 14:11 | 55.94321 | -3.38903 | 113 ft | 0 kts | 329° |
| 2026-05-06 14:11 | 55.94336 | -3.38918 | 114 ft | 10 kts | 329° |
| 2026-05-06 14:12 | 55.94419 | -3.38952 | 112 ft | 13 kts | 51° |
| 2026-05-06 14:12 | 55.94446 | -3.38881 | 114 ft | 0 kts | 60° |
| 2026-05-06 14:12 | 55.94477 | -3.38785 | 114 ft | 35 kts | 59° |
| 2026-05-06 14:12 | 55.94733 | -3.38030 | 112 ft | 103 kts | 58° |
| 2026-05-06 14:13 | 55.95202 | -3.36649 | 157 ft | 151 kts | 59° |
| 2026-05-06 14:13 | 55.95748 | -3.35054 | 825 ft | 152 kts | 58° |
| 2026-05-06 14:13 | 55.96440 | -3.33580 | 1447 ft | 163 kts | 43° |
| 2026-05-06 14:13 | 55.97361 | -3.32170 | 1773 ft | 185 kts | 41° |
| 2026-05-06 14:14 | 55.98399 | -3.30583 | 2124 ft | 210 kts | 42° |
| 2026-05-06 14:14 | 55.99597 | -3.28815 | 2513 ft | 237 kts | 35° |
| 2026-05-06 14:14 | 56.01229 | -3.27871 | 2963 ft | 260 kts | 359° |
| 2026-05-06 14:14 | 56.02935 | -3.28835 | 3720 ft | 268 kts | 323° |
| 2026-05-06 14:15 | 56.04045 | -3.31439 | 4650 ft | 267 kts | 287° |
| 2026-05-06 14:15 | 56.04115 | -3.34695 | 5564 ft | 265 kts | 258° |
| 2026-05-06 14:15 | 56.03578 | -3.37832 | 5894 ft | 263 kts | 248° |
| 2026-05-06 14:15 | 56.02870 | -3.40841 | 5996 ft | 262 kts | 246° |
| 2026-05-06 14:16 | 56.02172 | -3.43862 | 6008 ft | 263 kts | 248° |
| 2026-05-06 14:16 | 56.01542 | -3.46923 | 6008 ft | 262 kts | 250° |
| 2026-05-06 14:16 | 56.00984 | -3.50015 | 6009 ft | 262 kts | 252° |
| 2026-05-06 14:16 | 56.00473 | -3.53163 | 6528 ft | 264 kts | 254° |
| 2026-05-06 14:17 | 55.99997 | -3.56292 | 7446 ft | 266 kts | 255° |
| 2026-05-06 14:17 | 55.99524 | -3.59519 | 8314 ft | 270 kts | 255° |
| 2026-05-06 14:17 | 55.99057 | -3.62790 | 9173 ft | 274 kts | 255° |
| 2026-05-06 14:17 | 55.98584 | -3.66110 | 10009 ft | 279 kts | 256° |
| 2026-05-06 14:18 | 55.98094 | -3.69543 | 10478 ft | 296 kts | 256° |
| 2026-05-06 14:18 | 55.97564 | -3.73238 | 10715 ft | 319 kts | 256° |
| 2026-05-06 14:18 | 55.96992 | -3.77211 | 10947 ft | 339 kts | 256° |
| 2026-05-06 14:18 | 55.96396 | -3.81337 | 11535 ft | 346 kts | 256° |
| 2026-05-06 14:19 | 55.95790 | -3.85519 | 12275 ft | 349 kts | 256° |
| 2026-05-06 14:19 | 55.95185 | -3.89672 | 13034 ft | 352 kts | 256° |
| 2026-05-06 14:19 | 55.94568 | -3.93911 | 13804 ft | 354 kts | 256° |
| 2026-05-06 14:19 | 55.93864 | -3.98138 | 14469 ft | 357 kts | 249° |
| 2026-05-06 14:20 | 55.92652 | -4.02019 | 15120 ft | 361 kts | 234° |
| 2026-05-06 14:20 | 55.90907 | -4.05281 | 15744 ft | 367 kts | 220° |
| 2026-05-06 14:20 | 55.88808 | -4.07915 | 16373 ft | 371 kts | 217° |
| 2026-05-06 14:20 | 55.86675 | -4.10512 | 16995 ft | 373 kts | 217° |
| 2026-05-06 14:21 | 55.84552 | -4.13102 | 17587 ft | 376 kts | 217° |
| 2026-05-06 14:21 | 55.82389 | -4.15739 | 18185 ft | 379 kts | 217° |
| 2026-05-06 14:21 | 55.80207 | -4.18405 | 18699 ft | 382 kts | 217° |
| 2026-05-06 14:21 | 55.78007 | -4.21077 | 19195 ft | 385 kts | 215° |
| 2026-05-06 14:22 | 55.75594 | -4.23238 | 19661 ft | 393 kts | 204° |
| 2026-05-06 14:22 | 55.72923 | -4.24486 | 20131 ft | 401 kts | 192° |
| 2026-05-06 14:22 | 55.70107 | -4.24711 | 20565 ft | 410 kts | 179° |
| 2026-05-06 14:22 | 55.67276 | -4.23815 | 20947 ft | 418 kts | 167° |
| 2026-05-06 14:23 | 55.64512 | -4.22110 | 21034 ft | 428 kts | 159° |
| 2026-05-06 14:23 | 55.61806 | -4.19686 | 21044 ft | 443 kts | 153° |
| 2026-05-06 14:23 | 55.59128 | -4.17060 | 21038 ft | 448 kts | 153° |
| 2026-05-06 14:23 | 55.56395 | -4.14369 | 21034 ft | 450 kts | 153° |
| 2026-05-06 14:24 | 55.53658 | -4.11684 | 21041 ft | 450 kts | 153° |
| 2026-05-06 14:24 | 55.50917 | -4.09008 | 21038 ft | 450 kts | 153° |
| 2026-05-06 14:24 | 55.48177 | -4.06342 | 21043 ft | 450 kts | 153° |
| 2026-05-06 14:24 | 55.45432 | -4.03674 | 21022 ft | 450 kts | 153° |
| 2026-05-06 14:25 | 55.42689 | -4.01012 | 21036 ft | 450 kts | 153° |
| 2026-05-06 14:25 | 55.39946 | -3.98352 | 21038 ft | 450 kts | 153° |
| 2026-05-06 14:25 | 55.37239 | -3.95732 | 21046 ft | 450 kts | 153° |
| 2026-05-06 14:25 | 55.34495 | -3.93082 | 21037 ft | 450 kts | 153° |
| 2026-05-06 14:26 | 55.31746 | -3.90436 | 21040 ft | 450 kts | 153° |
| 2026-05-06 14:26 | 55.28998 | -3.87799 | 21046 ft | 450 kts | 154° |
| 2026-05-06 14:26 | 55.26248 | -3.85164 | 21046 ft | 450 kts | 154° |
| 2026-05-06 14:26 | 55.23501 | -3.82533 | 21044 ft | 450 kts | 154° |
| 2026-05-06 14:27 | 55.20754 | -3.79905 | 21053 ft | 450 kts | 154° |
| 2026-05-06 14:27 | 55.18004 | -3.77273 | 21044 ft | 450 kts | 153° |
| 2026-05-06 14:27 | 55.15260 | -3.74648 | 21046 ft | 450 kts | 153° |
| 2026-05-06 14:27 | 55.12546 | -3.72054 | 21049 ft | 450 kts | 153° |
| 2026-05-06 14:28 | 55.09798 | -3.69431 | 21046 ft | 450 kts | 153° |
| 2026-05-06 14:28 | 55.07046 | -3.66814 | 21057 ft | 450 kts | 154° |
| 2026-05-06 14:28 | 55.04294 | -3.64210 | 21058 ft | 450 kts | 154° |
| 2026-05-06 14:28 | 55.01544 | -3.61617 | 21055 ft | 450 kts | 154° |
| 2026-05-06 14:29 | 54.98794 | -3.59021 | 21055 ft | 450 kts | 154° |
| 2026-05-06 14:29 | 54.96041 | -3.56417 | 21054 ft | 450 kts | 154° |
| 2026-05-06 14:29 | 54.93298 | -3.53825 | 21037 ft | 449 kts | 154° |
| 2026-05-06 14:29 | 54.90583 | -3.51274 | 21036 ft | 449 kts | 154° |
| 2026-05-06 14:30 | 54.87831 | -3.48694 | 21040 ft | 449 kts | 154° |
| 2026-05-06 14:30 | 54.85085 | -3.46123 | 21043 ft | 449 kts | 154° |
| 2026-05-06 14:30 | 54.82337 | -3.43549 | 21036 ft | 449 kts | 154° |
| 2026-05-06 14:30 | 54.79592 | -3.40977 | 21049 ft | 449 kts | 154° |
| 2026-05-06 14:31 | 54.76842 | -3.38405 | 21051 ft | 449 kts | 154° |
| 2026-05-06 14:31 | 54.74090 | -3.35834 | 21053 ft | 449 kts | 154° |
| 2026-05-06 14:31 | 54.71326 | -3.33309 | 21054 ft | 449 kts | 155° |
| 2026-05-06 14:31 | 54.68516 | -3.30980 | 21043 ft | 448 kts | 158° |
| 2026-05-06 14:32 | 54.65700 | -3.28847 | 21047 ft | 447 kts | 159° |
| 2026-05-06 14:32 | 54.62826 | -3.26787 | 21048 ft | 447 kts | 160° |
| 2026-05-06 14:32 | 54.59946 | -3.24752 | 21050 ft | 447 kts | 160° |
| 2026-05-06 14:32 | 54.57072 | -3.22700 | 21050 ft | 447 kts | 159° |
| 2026-05-06 14:33 | 54.54208 | -3.20616 | 21051 ft | 447 kts | 159° |
| 2026-05-06 14:33 | 54.51357 | -3.18506 | 21051 ft | 446 kts | 159° |
| 2026-05-06 14:33 | 54.48507 | -3.16373 | 21050 ft | 447 kts | 159° |
| 2026-05-06 14:33 | 54.45662 | -3.14234 | 21039 ft | 447 kts | 159° |
| 2026-05-06 14:34 | 54.42812 | -3.12093 | 21038 ft | 446 kts | 159° |
| 2026-05-06 14:34 | 54.39969 | -3.09970 | 21038 ft | 446 kts | 159° |
| 2026-05-06 14:34 | 54.37157 | -3.07883 | 21037 ft | 446 kts | 159° |
| 2026-05-06 14:34 | 54.34304 | -3.05779 | 21038 ft | 446 kts | 159° |
| 2026-05-06 14:35 | 54.31455 | -3.03683 | 21036 ft | 446 kts | 159° |
| 2026-05-06 14:35 | 54.28601 | -3.01585 | 21032 ft | 446 kts | 159° |
| 2026-05-06 14:35 | 54.25751 | -2.99493 | 21031 ft | 446 kts | 159° |
| 2026-05-06 14:35 | 54.22900 | -2.97401 | 21030 ft | 446 kts | 159° |
| 2026-05-06 14:36 | 54.20055 | -2.95312 | 21012 ft | 445 kts | 159° |
| 2026-05-06 14:36 | 54.17212 | -2.93224 | 20928 ft | 442 kts | 159° |
| 2026-05-06 14:36 | 54.14409 | -2.91170 | 20272 ft | 437 kts | 159° |
| 2026-05-06 14:36 | 54.11663 | -2.89163 | 19637 ft | 433 kts | 159° |
| 2026-05-06 14:37 | 54.08913 | -2.87155 | 19028 ft | 428 kts | 159° |
| 2026-05-06 14:37 | 54.06186 | -2.85167 | 18448 ft | 424 kts | 159° |
| 2026-05-06 14:37 | 54.03489 | -2.83207 | 17791 ft | 420 kts | 159° |
| 2026-05-06 14:37 | 54.00784 | -2.81249 | 16703 ft | 426 kts | 159° |
| 2026-05-06 14:38 | 53.98044 | -2.79269 | 15596 ft | 426 kts | 158° |
| 2026-05-06 14:38 | 53.95350 | -2.77320 | 14449 ft | 417 kts | 158° |
| 2026-05-06 14:38 | 53.92703 | -2.75403 | 13826 ft | 410 kts | 158° |
| 2026-05-06 14:38 | 53.90097 | -2.73517 | 13210 ft | 405 kts | 158° |
| 2026-05-06 14:39 | 53.87517 | -2.71656 | 12534 ft | 401 kts | 158° |
| 2026-05-06 14:39 | 53.84994 | -2.69840 | 11873 ft | 398 kts | 158° |
| 2026-05-06 14:39 | 53.82513 | -2.67809 | 11176 ft | 396 kts | 147° |
| 2026-05-06 14:39 | 53.80598 | -2.64573 | 10864 ft | 383 kts | 123° |
| 2026-05-06 14:40 | 53.79547 | -2.60575 | 10742 ft | 365 kts | 102° |
| 2026-05-06 14:40 | 53.79395 | -2.56426 | 10617 ft | 347 kts | 81° |
| 2026-05-06 14:40 | 53.80018 | -2.52600 | 10492 ft | 331 kts | 68° |
| 2026-05-06 14:40 | 53.80809 | -2.49018 | 10367 ft | 318 kts | 68° |
| 2026-05-06 14:41 | 53.81563 | -2.45619 | 10237 ft | 307 kts | 68° |
| 2026-05-06 14:41 | 53.82300 | -2.42292 | 10095 ft | 298 kts | 68° |
| 2026-05-06 14:41 | 53.83016 | -2.39040 | 9832 ft | 294 kts | 68° |
| 2026-05-06 14:41 | 53.83737 | -2.35765 | 9415 ft | 294 kts | 68° |
| 2026-05-06 14:42 | 53.84439 | -2.32563 | 8983 ft | 287 kts | 68° |
| 2026-05-06 14:42 | 53.85130 | -2.29407 | 8337 ft | 284 kts | 67° |
| 2026-05-06 14:42 | 53.85806 | -2.26309 | 7764 ft | 278 kts | 68° |
| 2026-05-06 14:42 | 53.86468 | -2.23270 | 7232 ft | 272 kts | 68° |
| 2026-05-06 14:43 | 53.87110 | -2.20318 | 6760 ft | 263 kts | 68° |
| 2026-05-06 14:43 | 53.87722 | -2.17499 | 6304 ft | 254 kts | 68° |
| 2026-05-06 14:43 | 53.88321 | -2.14738 | 5849 ft | 245 kts | 68° |
| 2026-05-06 14:43 | 53.88898 | -2.12078 | 5430 ft | 236 kts | 69° |
| 2026-05-06 14:44 | 53.89455 | -2.09507 | 5030 ft | 228 kts | 70° |
| 2026-05-06 14:44 | 53.89994 | -2.07021 | 4628 ft | 221 kts | 70° |
| 2026-05-06 14:44 | 53.90519 | -2.04597 | 4240 ft | 216 kts | 70° |
| 2026-05-06 14:45 | 53.91544 | -1.99846 | 3495 ft | 213 kts | 70° |
| 2026-05-06 14:45 | 53.92046 | -1.97514 | 3206 ft | 205 kts | 70° |
| 2026-05-06 14:45 | 53.92510 | -1.95356 | 3126 ft | 191 kts | 70° |
| 2026-05-06 14:45 | 53.92939 | -1.93350 | 3045 ft | 171 kts | 70° |
| 2026-05-06 14:46 | 53.93326 | -1.91539 | 2991 ft | 155 kts | 70° |
| 2026-05-06 14:46 | 53.93684 | -1.89860 | 2994 ft | 149 kts | 70° |
| 2026-05-06 14:46 | 53.94031 | -1.88243 | 2993 ft | 144 kts | 70° |
| 2026-05-06 14:46 | 53.94372 | -1.86656 | 3004 ft | 142 kts | 70° |
| 2026-05-06 14:47 | 53.94708 | -1.85082 | 3004 ft | 144 kts | 70° |
| 2026-05-06 14:47 | 53.95051 | -1.83482 | 3005 ft | 144 kts | 70° |
| 2026-05-06 14:47 | 53.95297 | -1.81828 | 3008 ft | 145 kts | 86° |
| 2026-05-06 14:47 | 53.95184 | -1.80165 | 2997 ft | 146 kts | 107° |
| 2026-05-06 14:48 | 53.94687 | -1.78662 | 2975 ft | 149 kts | 132° |
| 2026-05-06 14:48 | 53.93936 | -1.77471 | 2856 ft | 147 kts | 131° |
| 2026-05-06 14:48 | 53.93198 | -1.76287 | 2635 ft | 146 kts | 133° |
| 2026-05-06 14:48 | 53.92453 | -1.75115 | 2425 ft | 146 kts | 133° |
| 2026-05-06 14:49 | 53.91702 | -1.73945 | 2192 ft | 146 kts | 135° |
| 2026-05-06 14:49 | 53.90959 | -1.72796 | 1973 ft | 141 kts | 135° |
| 2026-05-06 14:49 | 53.90238 | -1.71682 | 1749 ft | 139 kts | 135° |
| 2026-05-06 14:49 | 53.89534 | -1.70595 | 1491 ft | 139 kts | 135° |
| 2026-05-06 14:50 | 53.88818 | -1.69491 | 1251 ft | 139 kts | 135° |
| 2026-05-06 14:50 | 53.88100 | -1.68385 | 1022 ft | 140 kts | 136° |
| 2026-05-06 14:50 | 53.87376 | -1.67274 | 796 ft | 141 kts | 135° |
| 2026-05-06 14:50 | 53.86682 | -1.66188 | 671 ft | 117 kts | 138° |
| 2026-05-06 14:51 | 53.86304 | -1.65613 | 663 ft | 28 kts | 138° |
| 2026-05-06 14:51 | 53.86260 | -1.65472 | 663 ft | 10 kts | 32° |
| 2026-05-06 14:51 | 53.86332 | -1.65457 | 665 ft | 10 kts | 1° |
| 2026-05-06 14:51 | 53.86399 | -1.65454 | 666 ft | 10 kts | 1° |
| 2026-05-06 14:52 | 53.86464 | -1.65448 | 666 ft | 10 kts | 7° |
| 2026-05-06 14:52 | 53.86540 | -1.65434 | 664 ft | 13 kts | 5° |
| 2026-05-06 14:52 | 53.86638 | -1.65423 | 662 ft | 16 kts | 2° |
| 2026-05-06 14:52 | 53.86729 | -1.65428 | 661 ft | 6 kts | 325° |
| 2026-05-06 14:53 | 53.86737 | -1.65461 | 662 ft | 1 kts | 279° |
| 2026-05-06 14:53 | 53.86738 | -1.65487 | 663 ft | 7 kts | 272° |
| 2026-05-06 14:53 | 53.86739 | -1.65567 | 664 ft | 9 kts | 271° |
| 2026-05-06 14:53 | 53.86740 | -1.65679 | 667 ft | 9 kts | 271° |
| 2026-05-06 14:54 | 53.86776 | -1.65755 | 669 ft | 9 kts | 351° |
| 2026-05-06 14:54 | 53.86812 | -1.65822 | 668 ft | 9 kts | 271° |
| 2026-05-06 14:54 | 53.86820 | -1.65907 | 668 ft | 5 kts | 312° |
| 2026-05-06 14:54 | 53.86847 | -1.65907 | 668 ft | 3 kts | 6° |
| 2026-05-06 14:55 | 53.86859 | -1.65907 | 668 ft | 0 kts | 359° |